createdAt,value
2017-07-02T00:01:40.372Z,84.80
2017-07-02T00:04:07.899Z,84.70
2017-07-02T00:06:35.415Z,84.70
2017-07-02T00:09:03.432Z,84.80
2017-07-02T00:11:30.943Z,84.30
2017-07-02T00:13:58.476Z,84.90
2017-07-02T00:16:26.265Z,84.90
2017-07-02T00:18:53.771Z,85.00
2017-07-02T00:21:21.294Z,85.00
2017-07-02T00:23:49.116Z,85.00
2017-07-02T00:26:16.639Z,85.10
2017-07-02T00:28:44.936Z,85.10
2017-07-02T00:31:12.918Z,84.90
2017-07-02T00:33:40.449Z,84.80
2017-07-02T00:36:07.973Z,84.80
2017-07-02T00:38:35.906Z,84.80
2017-07-02T00:41:03.419Z,84.90
2017-07-02T00:43:30.944Z,84.90
2017-07-02T00:45:58.897Z,84.90
2017-07-02T00:48:26.415Z,84.80
2017-07-02T00:50:54.701Z,84.80
2017-07-02T00:53:23.312Z,84.80
2017-07-02T00:55:50.849Z,84.80
2017-07-02T00:58:19.155Z,84.90
2017-07-02T01:00:46.974Z,84.90
2017-07-02T01:03:14.475Z,85.10
2017-07-02T01:05:41.990Z,85.10
2017-07-02T01:08:09.913Z,85.10
2017-07-02T01:10:37.422Z,85.10
2017-07-02T01:13:04.947Z,85.20
2017-07-02T01:15:32.915Z,85.20
2017-07-02T01:18:00.436Z,85.10
2017-07-02T01:20:27.976Z,85.10
2017-07-02T01:22:56.006Z,85.10
2017-07-02T01:25:23.531Z,85.20
2017-07-02T01:27:51.051Z,85.20
2017-07-02T01:30:18.884Z,85.40
2017-07-02T01:32:46.413Z,85.30
2017-07-02T01:35:14.697Z,85.50
2017-07-02T01:37:42.606Z,85.50
2017-07-02T01:40:10.114Z,85.60
2017-07-02T01:42:37.626Z,85.70
2017-07-02T01:45:05.580Z,85.80
2017-07-02T01:47:33.120Z,85.90
2017-07-02T01:50:00.629Z,85.90
2017-07-02T01:52:28.460Z,85.90
2017-07-02T01:54:55.979Z,86.10
2017-07-02T01:57:23.499Z,86.10
2017-07-02T01:59:51.288Z,86.20
2017-07-02T02:02:30.520Z,86.10
2017-07-02T02:04:58.367Z,86.30
2017-07-02T02:07:25.892Z,86.20
2017-07-02T02:09:53.416Z,86.30
2017-07-02T02:12:21.254Z,86.40
2017-07-02T02:14:48.769Z,85.70
2017-07-02T02:17:17.046Z,86.30
2017-07-02T02:19:45.042Z,86.30
2017-07-02T02:22:12.552Z,86.30
2017-07-02T02:24:40.062Z,86.10
2017-07-02T02:27:07.938Z,86.10
2017-07-02T02:29:35.452Z,86.00
2017-07-02T02:32:03.747Z,85.90
2017-07-02T02:34:31.632Z,85.90
2017-07-02T02:36:59.142Z,85.90
2017-07-02T02:39:26.654Z,85.80
2017-07-02T02:41:54.540Z,85.80
2017-07-02T02:44:22.062Z,85.60
2017-07-02T02:46:49.574Z,85.50
2017-07-02T02:49:17.510Z,85.50
2017-07-02T02:51:45.043Z,85.40
2017-07-02T02:54:12.557Z,85.40
2017-07-02T02:56:40.504Z,85.30
2017-07-02T02:59:08.027Z,85.20
2017-07-02T03:01:35.552Z,85.20
2017-07-02T03:04:03.386Z,85.20
2017-07-02T03:06:30.904Z,85.20
2017-07-02T03:08:58.409Z,85.10
2017-07-02T03:11:26.209Z,85.10
2017-07-02T03:13:53.729Z,85.00
2017-07-02T03:16:21.251Z,85.10
2017-07-02T03:18:49.861Z,84.80
2017-07-02T03:21:17.382Z,84.80
2017-07-02T03:23:44.883Z,84.80
2017-07-02T03:26:12.848Z,84.80
2017-07-02T03:28:40.367Z,84.40
2017-07-02T03:31:07.885Z,84.40
2017-07-02T03:33:35.751Z,84.40
2017-07-02T03:36:03.295Z,84.30
2017-07-02T03:38:30.815Z,84.30
2017-07-02T03:40:58.647Z,84.20
2017-07-02T03:43:26.167Z,84.20
2017-07-02T03:45:53.674Z,84.00
2017-07-02T03:48:21.546Z,84.00
2017-07-02T03:50:49.077Z,83.90
2017-07-02T03:53:16.578Z,84.10
2017-07-02T03:55:44.514Z,83.80
2017-07-02T03:58:12.046Z,83.70
2017-07-02T04:00:39.541Z,83.60
2017-07-02T04:03:07.399Z,83.60
2017-07-02T04:05:34.931Z,83.40
2017-07-02T04:08:02.442Z,83.30
2017-07-02T04:10:30.254Z,83.40
2017-07-02T04:12:57.767Z,83.40
2017-07-02T04:15:25.287Z,83.30
2017-07-02T04:17:53.213Z,83.20
2017-07-02T04:20:20.725Z,83.20
2017-07-02T04:22:48.240Z,83.30
2017-07-02T04:25:16.264Z,83.30
2017-07-02T04:27:43.795Z,83.30
2017-07-02T04:30:11.295Z,83.40
2017-07-02T04:32:39.162Z,83.30
2017-07-02T04:35:06.666Z,83.40
2017-07-02T04:37:34.179Z,83.90
2017-07-02T04:40:02.023Z,83.10
2017-07-02T04:42:29.546Z,82.90
2017-07-02T04:44:57.065Z,82.90
2017-07-02T04:47:24.904Z,82.80
2017-07-02T04:49:52.427Z,82.80
2017-07-02T04:52:19.949Z,82.80
2017-07-02T04:54:47.918Z,82.70
2017-07-02T04:57:15.451Z,82.60
2017-07-02T04:59:42.989Z,82.50
2017-07-02T05:02:10.915Z,82.50
2017-07-02T05:04:38.430Z,82.50
2017-07-02T05:07:05.949Z,82.20
2017-07-02T05:09:33.754Z,82.30
2017-07-02T05:12:01.270Z,82.20
2017-07-02T05:14:28.795Z,82.20
2017-07-02T05:16:56.615Z,82.10
2017-07-02T05:19:24.142Z,82.00
2017-07-02T05:21:51.655Z,81.50
2017-07-02T05:24:19.644Z,81.50
2017-07-02T05:26:47.157Z,81.40
2017-07-02T05:29:14.658Z,81.10
2017-07-02T05:31:42.650Z,81.00
2017-07-02T05:34:10.182Z,80.90
2017-07-02T05:36:37.693Z,80.80
2017-07-02T05:39:05.552Z,80.70
2017-07-02T05:41:33.064Z,80.30
2017-07-02T05:44:00.606Z,80.10
2017-07-02T05:46:28.421Z,79.90
2017-07-02T05:48:55.934Z,79.90
2017-07-02T05:51:23.459Z,79.80
2017-07-02T05:53:51.313Z,79.80
2017-07-02T05:56:18.830Z,79.60
2017-07-02T05:58:46.348Z,79.30
2017-07-02T06:01:14.186Z,78.90
2017-07-02T06:03:41.706Z,78.60
2017-07-02T06:06:09.258Z,78.30
2017-07-02T06:08:37.054Z,77.90
2017-07-02T06:11:04.590Z,77.80
2017-07-02T06:13:32.874Z,78.50
2017-07-02T06:16:01.508Z,77.70
2017-07-02T06:18:29.040Z,77.70
2017-07-02T06:20:56.563Z,78.00
2017-07-02T06:23:24.371Z,78.30
2017-07-02T06:25:51.919Z,78.00
2017-07-02T06:28:19.445Z,77.70
2017-07-02T06:30:47.283Z,77.70
2017-07-02T06:33:14.806Z,77.50
2017-07-02T06:35:42.337Z,76.90
2017-07-02T06:38:10.162Z,76.60
2017-07-02T06:40:37.686Z,76.00
2017-07-02T06:43:05.221Z,75.40
2017-07-02T06:45:33.062Z,75.10
2017-07-02T06:48:00.610Z,74.80
2017-07-02T06:50:28.124Z,74.50
2017-07-02T06:52:56.687Z,75.00
2017-07-02T06:55:24.205Z,74.80
2017-07-02T06:57:51.731Z,74.50
2017-07-02T07:00:20.370Z,74.10
2017-07-02T07:02:47.890Z,74.10
2017-07-02T07:05:16.166Z,74.50
2017-07-02T07:07:44.886Z,74.50
2017-07-02T07:10:12.405Z,74.40
2017-07-02T07:12:40.706Z,73.00
2017-07-02T07:15:08.605Z,72.90
2017-07-02T07:17:36.125Z,72.20
2017-07-02T07:20:03.631Z,71.70
2017-07-02T07:22:31.587Z,71.10
2017-07-02T07:24:59.111Z,71.00
2017-07-02T07:27:26.609Z,70.70
2017-07-02T07:29:54.469Z,70.00
2017-07-02T07:32:22.000Z,69.60
2017-07-02T07:34:49.548Z,68.70
2017-07-02T07:37:17.580Z,67.50
2017-07-02T07:39:45.096Z,67.60
2017-07-02T07:42:13.438Z,68.00
2017-07-02T07:44:41.240Z,68.00
2017-07-02T07:47:08.765Z,68.00
2017-07-02T07:49:36.280Z,66.90
2017-07-02T07:52:04.162Z,67.10
2017-07-02T07:54:31.674Z,66.70
2017-07-02T07:56:59.199Z,66.60
2017-07-02T07:59:26.990Z,65.90
2017-07-02T08:01:54.530Z,65.10
2017-07-02T08:04:22.043Z,64.40
2017-07-02T08:06:49.912Z,64.10
2017-07-02T08:09:17.457Z,63.80
2017-07-02T08:11:44.953Z,64.00
2017-07-02T08:14:12.811Z,63.90
2017-07-02T08:16:40.327Z,62.50
2017-07-02T08:19:07.830Z,61.80
2017-07-02T08:21:35.681Z,61.80
2017-07-02T08:24:03.202Z,61.20
2017-07-02T08:26:30.740Z,60.60
2017-07-02T08:28:58.609Z,60.80
2017-07-02T08:31:26.116Z,60.70
2017-07-02T08:33:53.647Z,60.40
2017-07-02T08:36:22.389Z,61.10
2017-07-02T08:38:49.930Z,61.10
2017-07-02T08:41:17.450Z,61.10
2017-07-02T08:43:45.254Z,61.30
2017-07-02T08:46:12.770Z,60.90
2017-07-02T08:48:40.310Z,60.90
2017-07-02T08:51:08.226Z,60.00
2017-07-02T08:53:36.511Z,60.20
2017-07-02T08:56:04.022Z,60.20
2017-07-02T08:58:31.969Z,60.30
2017-07-02T09:00:59.502Z,60.50
2017-07-02T09:03:27.020Z,60.70
2017-07-02T09:05:54.853Z,60.90
2017-07-02T09:08:22.372Z,61.00
2017-07-02T09:10:49.920Z,60.80
2017-07-02T09:13:17.837Z,61.00
2017-07-02T09:15:45.366Z,60.60
2017-07-02T09:18:12.889Z,60.20
2017-07-02T09:20:40.825Z,60.30
2017-07-02T09:23:08.349Z,60.50
2017-07-02T09:25:36.644Z,60.30
2017-07-02T09:28:04.547Z,60.30
2017-07-02T09:30:32.057Z,59.90
2017-07-02T09:32:59.583Z,60.10
2017-07-02T09:35:27.415Z,59.80
2017-07-02T09:37:54.928Z,59.60
2017-07-02T09:40:22.442Z,59.30
2017-07-02T09:42:50.312Z,59.60
2017-07-02T09:45:17.813Z,59.80
2017-07-02T09:47:45.331Z,59.40
2017-07-02T09:50:13.185Z,59.20
2017-07-02T09:52:40.700Z,59.10
2017-07-02T09:55:08.220Z,59.10
2017-07-02T09:57:36.028Z,58.50
2017-07-02T10:00:03.549Z,58.60
2017-07-02T10:02:31.070Z,58.00
2017-07-02T10:04:59.691Z,57.20
2017-07-02T10:07:27.222Z,57.20
2017-07-02T10:09:54.745Z,57.10
2017-07-02T10:12:22.558Z,56.70
2017-07-02T10:14:50.091Z,56.50
2017-07-02T10:17:18.376Z,56.40
2017-07-02T10:19:47.098Z,55.90
2017-07-02T10:22:14.609Z,55.90
2017-07-02T10:24:42.888Z,55.90
2017-07-02T10:27:11.512Z,55.20
2017-07-02T10:29:39.069Z,55.20
2017-07-02T10:32:06.581Z,55.40
2017-07-02T10:34:34.418Z,55.20
2017-07-02T10:37:01.923Z,54.70
2017-07-02T10:39:29.449Z,54.90
2017-07-02T10:41:57.433Z,54.40
2017-07-02T10:44:24.943Z,54.40
2017-07-02T10:46:52.474Z,53.90
2017-07-02T10:49:21.204Z,53.70
2017-07-02T10:51:48.728Z,53.60
2017-07-02T10:54:17.009Z,53.60
2017-07-02T10:56:44.898Z,53.50
2017-07-02T10:59:12.398Z,53.00
2017-07-02T11:01:39.921Z,52.20
2017-07-02T11:04:07.795Z,51.90
2017-07-02T11:06:35.330Z,51.50
2017-07-02T11:09:02.863Z,51.70
2017-07-02T11:11:30.704Z,52.00
2017-07-02T11:13:58.237Z,51.90
2017-07-02T11:16:25.774Z,51.90
2017-07-02T11:18:53.618Z,51.10
2017-07-02T11:21:21.182Z,51.10
2017-07-02T11:23:48.694Z,51.00
2017-07-02T11:26:16.667Z,50.80
2017-07-02T11:28:44.207Z,50.40
2017-07-02T11:31:11.725Z,49.50
2017-07-02T11:33:39.657Z,49.10
2017-07-02T11:36:07.175Z,49.50
2017-07-02T11:38:34.739Z,49.90
2017-07-02T11:41:02.644Z,50.30
2017-07-02T11:43:30.159Z,50.80
2017-07-02T11:45:57.674Z,51.10
2017-07-02T11:48:25.509Z,51.10
2017-07-02T11:50:53.053Z,51.20
2017-07-02T11:53:20.582Z,51.30
2017-07-02T11:55:48.382Z,50.90
2017-07-02T11:58:15.892Z,50.40
2017-07-02T12:00:43.397Z,50.10
2017-07-02T12:03:12.102Z,50.10
2017-07-02T12:05:39.617Z,50.10
2017-07-02T12:08:07.136Z,50.30
2017-07-02T12:10:35.012Z,50.40
2017-07-02T12:13:02.533Z,50.50
2017-07-02T12:15:30.039Z,50.80
2017-07-02T12:17:57.888Z,51.30
2017-07-02T12:20:25.411Z,50.90
2017-07-02T12:22:52.931Z,51.10
2017-07-02T12:25:20.777Z,51.10
2017-07-02T12:27:48.300Z,50.80
2017-07-02T12:30:16.583Z,50.00
2017-07-02T12:32:44.513Z,49.90
2017-07-02T12:35:12.023Z,49.80
2017-07-02T12:37:39.538Z,49.40
2017-07-02T12:40:07.383Z,49.20
2017-07-02T12:42:34.899Z,49.40
2017-07-02T12:45:02.429Z,49.50
2017-07-02T12:47:30.349Z,49.30
2017-07-02T12:49:57.863Z,49.40
2017-07-02T12:52:25.405Z,49.40
2017-07-02T12:54:53.233Z,50.00
2017-07-02T12:57:20.778Z,50.30
2017-07-02T12:59:48.327Z,50.70
2017-07-02T13:02:16.139Z,50.60
2017-07-02T13:04:43.656Z,50.70
2017-07-02T13:07:11.175Z,51.50
2017-07-02T13:09:39.013Z,51.00
2017-07-02T13:12:06.539Z,51.10
2017-07-02T13:14:34.074Z,51.20
2017-07-02T13:17:01.917Z,51.10
2017-07-02T13:19:29.444Z,50.80
2017-07-02T13:21:56.963Z,50.80
2017-07-02T13:24:24.768Z,50.90
2017-07-02T13:26:52.319Z,50.90
2017-07-02T13:29:19.835Z,50.70
2017-07-02T13:31:47.656Z,49.90
2017-07-02T13:34:15.158Z,49.40
2017-07-02T13:36:42.667Z,49.30
2017-07-02T13:39:10.564Z,49.60
2017-07-02T13:41:38.070Z,49.40
2017-07-02T13:44:05.585Z,49.40
2017-07-02T13:46:33.451Z,49.50
2017-07-02T13:49:00.985Z,49.50
2017-07-02T13:51:28.548Z,48.80
2017-07-02T13:53:56.438Z,48.40
2017-07-02T13:56:23.980Z,48.50
2017-07-02T13:58:51.499Z,47.70
2017-07-02T14:01:19.335Z,46.70
2017-07-02T14:03:46.866Z,46.40
2017-07-02T14:06:14.389Z,46.30
2017-07-02T14:08:42.205Z,46.00
2017-07-02T14:11:09.724Z,45.80
2017-07-02T14:13:37.252Z,46.20
2017-07-02T14:16:05.066Z,46.80
2017-07-02T14:18:32.605Z,46.30
2017-07-02T14:21:00.128Z,45.60
2017-07-02T14:23:27.946Z,45.00
2017-07-02T14:25:55.476Z,44.60
2017-07-02T14:28:23.000Z,44.50
2017-07-02T14:30:50.808Z,44.70
2017-07-02T14:33:18.365Z,44.60
2017-07-02T14:35:45.888Z,44.10
2017-07-02T14:38:13.753Z,43.20
2017-07-02T14:40:41.268Z,42.40
2017-07-02T14:43:08.808Z,42.60
2017-07-02T14:45:36.655Z,43.00
2017-07-02T14:48:04.192Z,43.10
2017-07-02T14:50:31.725Z,43.20
2017-07-02T14:53:00.451Z,43.60
2017-07-02T14:55:27.974Z,43.60
2017-07-02T14:57:56.253Z,44.00
2017-07-02T15:00:24.073Z,43.90
2017-07-02T15:02:51.596Z,44.40
2017-07-02T15:05:19.115Z,45.00
2017-07-02T15:07:46.938Z,44.90
2017-07-02T15:10:14.460Z,45.10
2017-07-02T15:12:41.985Z,45.50
2017-07-02T15:15:09.834Z,45.90
2017-07-02T15:17:37.367Z,46.60
2017-07-02T15:20:04.888Z,46.90
2017-07-02T15:22:32.711Z,47.40
2017-07-02T15:25:00.247Z,47.60
2017-07-02T15:27:27.795Z,47.70
2017-07-02T15:29:55.707Z,47.80
2017-07-02T15:32:23.220Z,47.50
2017-07-02T15:34:51.496Z,47.60
2017-07-02T15:37:19.411Z,47.60
2017-07-02T15:39:46.961Z,47.90
2017-07-02T15:42:14.485Z,47.90
2017-07-02T15:44:42.319Z,48.20
2017-07-02T15:47:09.830Z,48.40
2017-07-02T15:49:37.370Z,48.60
2017-07-02T15:52:05.170Z,48.70
2017-07-02T15:54:32.696Z,48.50
2017-07-02T15:57:00.196Z,48.20
2017-07-02T15:59:28.065Z,48.40
2017-07-02T16:01:55.587Z,48.70
2017-07-02T16:04:23.108Z,48.80
2017-07-02T16:06:50.960Z,49.10
2017-07-02T16:09:18.480Z,49.10
2017-07-02T16:11:46.007Z,49.30
2017-07-02T16:14:13.856Z,49.50
2017-07-02T16:16:41.368Z,49.80
2017-07-02T16:19:08.879Z,50.10
2017-07-02T16:21:36.793Z,50.00
2017-07-02T16:24:04.328Z,50.00
2017-07-02T16:26:31.831Z,49.90
2017-07-02T16:28:59.842Z,49.80
2017-07-02T16:31:27.392Z,49.80
2017-07-02T16:33:54.930Z,49.90
2017-07-02T16:36:22.756Z,50.20
2017-07-02T16:38:51.036Z,50.60
2017-07-02T16:41:18.540Z,50.80
2017-07-02T16:43:46.402Z,51.00
2017-07-02T16:46:13.912Z,51.40
2017-07-02T16:48:41.441Z,52.00
2017-07-02T16:51:09.312Z,52.40
2017-07-02T16:53:36.821Z,52.90
2017-07-02T16:56:05.108Z,53.50
2017-07-02T16:58:32.934Z,53.60
2017-07-02T17:01:00.472Z,53.70
2017-07-02T17:03:28.014Z,53.90
2017-07-02T17:05:55.840Z,54.30
2017-07-02T17:08:24.136Z,55.00
2017-07-02T17:10:51.664Z,55.70
2017-07-02T17:13:19.517Z,55.50
2017-07-02T17:15:47.053Z,55.90
2017-07-02T17:18:14.610Z,56.20
2017-07-02T17:20:42.479Z,56.50
2017-07-02T17:23:10.034Z,56.90
2017-07-02T17:25:37.544Z,57.20
2017-07-02T17:28:05.409Z,57.40
2017-07-02T17:30:32.968Z,57.80
2017-07-02T17:33:00.493Z,57.90
2017-07-02T17:35:28.327Z,58.30
2017-07-02T17:37:55.885Z,58.60
2017-07-02T17:40:23.400Z,58.90
2017-07-02T17:42:51.273Z,59.00
2017-07-02T17:45:18.807Z,59.20
2017-07-02T17:47:46.333Z,59.50
2017-07-02T17:50:14.159Z,59.90
2017-07-02T17:52:41.670Z,60.10
2017-07-02T17:55:09.196Z,60.50
2017-07-02T17:57:37.122Z,60.90
2017-07-02T18:00:04.688Z,61.30
2017-07-02T18:02:32.204Z,61.70
2017-07-02T18:05:00.853Z,62.50
2017-07-02T18:07:28.364Z,62.50
2017-07-02T18:09:55.906Z,63.10
2017-07-02T18:12:24.546Z,64.10
2017-07-02T18:14:52.089Z,64.10
2017-07-02T18:17:19.645Z,64.30
2017-07-02T18:19:47.484Z,64.70
2017-07-02T18:22:15.810Z,65.30
2017-07-02T18:24:43.336Z,65.20
2017-07-02T18:27:11.240Z,65.30
2017-07-02T18:29:38.796Z,65.40
2017-07-02T18:32:06.542Z,65.60
2017-07-02T18:34:34.549Z,65.50
2017-07-02T18:37:02.050Z,65.30
2017-07-02T18:39:29.696Z,65.20
2017-07-02T18:41:58.308Z,65.10
2017-07-02T18:44:25.891Z,65.20
2017-07-02T18:46:53.476Z,65.20
2017-07-02T18:49:21.324Z,65.00
2017-07-02T18:51:48.873Z,65.20
2017-07-02T18:54:16.388Z,65.40
2017-07-02T18:56:45.027Z,65.70
2017-07-02T18:59:12.537Z,65.60
2017-07-02T19:01:40.731Z,65.80
2017-07-02T19:04:09.202Z,66.00
2017-07-02T19:06:36.806Z,66.20
2017-07-02T19:09:04.422Z,66.20
2017-07-02T19:11:32.404Z,66.30
2017-07-02T19:14:00.076Z,66.40
2017-07-02T19:16:27.630Z,66.40
2017-07-02T19:18:55.598Z,66.50
2017-07-02T19:21:23.184Z,66.50
2017-07-02T19:23:50.726Z,66.50
2017-07-02T19:26:18.654Z,66.60
2017-07-02T19:28:46.173Z,66.70
2017-07-02T19:31:13.716Z,66.90
2017-07-02T19:33:41.617Z,67.20
2017-07-02T19:36:09.197Z,67.30
2017-07-02T19:38:37.548Z,67.70
2017-07-02T19:41:05.869Z,67.70
2017-07-02T19:43:33.565Z,67.80
2017-07-02T19:46:01.108Z,68.10
2017-07-02T19:48:29.002Z,68.30
2017-07-02T19:50:56.527Z,68.40
2017-07-02T19:53:24.845Z,68.80
2017-07-02T19:55:52.685Z,68.80
2017-07-02T19:58:21.119Z,69.00
2017-07-02T20:00:48.742Z,69.20
2017-07-02T20:03:16.648Z,69.20
2017-07-02T20:05:44.305Z,69.40
2017-07-02T20:08:11.858Z,69.50
2017-07-02T20:10:39.808Z,69.50
2017-07-02T20:13:07.362Z,69.60
2017-07-02T20:15:34.903Z,69.80
2017-07-02T20:18:02.757Z,69.80
2017-07-02T20:20:30.285Z,69.90
2017-07-02T20:22:57.858Z,70.00
2017-07-02T20:25:25.781Z,70.00
2017-07-02T20:27:53.338Z,70.00
2017-07-02T20:30:20.880Z,70.00
2017-07-02T20:32:48.828Z,70.10
2017-07-02T20:35:16.369Z,70.10
2017-07-02T20:37:43.906Z,70.30
2017-07-02T20:40:11.796Z,70.20
2017-07-02T20:42:39.334Z,70.20
2017-07-02T20:45:06.855Z,70.20
2017-07-02T20:47:35.507Z,70.50
2017-07-02T20:50:03.045Z,70.50
2017-07-02T20:52:30.571Z,70.70
2017-07-02T20:54:59.144Z,70.90
2017-07-02T20:57:26.654Z,70.80
2017-07-02T20:59:54.174Z,71.00
2017-07-02T21:02:22.789Z,71.10
2017-07-02T21:04:50.306Z,71.10
2017-07-02T21:07:18.613Z,71.30
2017-07-02T21:09:46.564Z,71.20
2017-07-02T21:12:14.156Z,71.30
2017-07-02T21:14:41.685Z,71.50
2017-07-02T21:17:10.295Z,71.90
2017-07-02T21:19:37.813Z,71.90
2017-07-02T21:22:05.351Z,72.00
2017-07-02T21:24:33.197Z,72.30
2017-07-02T21:27:00.721Z,72.50
2017-07-02T21:29:28.221Z,72.50
2017-07-02T21:31:56.186Z,72.70
2017-07-02T21:34:23.731Z,72.90
2017-07-02T21:36:51.271Z,72.90
2017-07-02T21:39:19.123Z,73.20
2017-07-02T21:41:47.427Z,73.40
2017-07-02T21:44:14.948Z,73.40
2017-07-02T21:46:42.803Z,73.60
2017-07-02T21:49:10.317Z,73.60
2017-07-02T21:51:37.832Z,73.60
2017-07-02T21:54:05.661Z,73.60
2017-07-02T21:56:33.192Z,73.60
2017-07-02T21:59:00.708Z,73.60
2017-07-02T22:01:28.639Z,73.50
2017-07-02T22:03:56.234Z,73.50
2017-07-02T22:06:23.747Z,73.40
2017-07-02T22:08:51.575Z,73.40
2017-07-02T22:11:19.113Z,73.40
2017-07-02T22:13:46.652Z,73.40
2017-07-02T22:16:14.518Z,73.20
2017-07-02T22:18:42.055Z,73.20
2017-07-02T22:21:09.571Z,73.10
2017-07-02T22:23:37.513Z,73.20
2017-07-02T22:26:05.024Z,73.30
2017-07-02T22:28:33.307Z,74.20
2017-07-02T22:31:01.976Z,73.40
2017-07-02T22:33:29.491Z,73.40
2017-07-02T22:35:57.031Z,73.30
2017-07-02T22:38:24.844Z,73.30
2017-07-02T22:40:52.349Z,73.20
2017-07-02T22:43:19.857Z,73.20
2017-07-02T22:45:47.700Z,73.30
2017-07-02T22:48:15.222Z,73.40
2017-07-02T22:50:43.513Z,73.40
2017-07-02T22:53:11.504Z,73.50
2017-07-02T22:55:39.020Z,73.50
2017-07-02T22:58:07.315Z,73.70
2017-07-02T23:00:35.887Z,73.60
2017-07-02T23:03:03.416Z,73.50
2017-07-02T23:05:30.965Z,73.70
2017-07-02T23:07:58.830Z,73.80
2017-07-02T23:10:26.323Z,73.80
2017-07-02T23:12:53.845Z,73.90
2017-07-02T23:15:21.713Z,74.00
2017-07-02T23:17:49.240Z,74.10
2017-07-02T23:20:16.766Z,74.10
2017-07-02T23:22:44.698Z,74.20
2017-07-02T23:25:12.213Z,74.30
2017-07-02T23:27:40.511Z,74.40
2017-07-02T23:30:08.407Z,74.40
2017-07-02T23:32:35.925Z,74.40
2017-07-02T23:35:04.204Z,74.60
2017-07-02T23:37:32.821Z,74.60
2017-07-02T23:40:00.340Z,74.60
2017-07-02T23:42:27.876Z,74.60
2017-07-02T23:44:55.691Z,74.60
2017-07-02T23:47:23.207Z,74.50
2017-07-02T23:49:50.718Z,74.50
2017-07-02T23:52:18.510Z,75.20
2017-07-02T23:54:46.021Z,74.40
2017-07-02T23:57:14.321Z,74.40
2017-07-02T23:59:42.306Z,74.40
